createdAt,value
2023-01-25T00:00:08.226Z,103347.22
2023-01-25T00:02:35.839Z,103337.41
2023-01-25T00:05:03.251Z,103344.63
2023-01-25T00:07:30.654Z,103335.25
2023-01-25T00:09:58.104Z,103328.50
2023-01-25T00:12:25.623Z,103327.06
2023-01-25T00:14:53.013Z,103321.22
2023-01-25T00:17:21.786Z,103320.03
2023-01-25T00:19:49.162Z,103319.53
2023-01-25T00:22:16.587Z,103313.28
2023-01-25T00:24:44.073Z,103306.66
2023-01-25T00:27:11.585Z,103311.34
2023-01-25T00:29:39.123Z,103305.78
2023-01-25T00:32:37.860Z,103310.38
2023-01-25T00:35:06.692Z,103312.41
2023-01-25T00:37:37.592Z,103312.78
2023-01-25T00:40:06.930Z,103310.72
2023-01-25T00:42:34.468Z,103308.44
2023-01-25T00:45:03.071Z,103305.53
2023-01-25T00:47:30.498Z,103296.78
2023-01-25T00:49:59.358Z,103294.84
2023-01-25T00:52:28.512Z,103287.22
2023-01-25T00:54:56.950Z,103283.72
2023-01-25T00:57:24.404Z,103277.22
2023-01-25T00:59:51.770Z,103278.81
2023-01-25T01:02:19.178Z,103270.84
2023-01-25T01:04:46.680Z,103265.66
2023-01-25T01:07:16.276Z,103258.69
2023-01-25T01:09:43.798Z,103257.59
2023-01-25T01:12:11.253Z,103260.97
2023-01-25T01:14:38.700Z,103258.81
2023-01-25T01:17:06.116Z,103251.59
2023-01-25T01:19:33.693Z,103256.78
2023-01-25T01:22:01.076Z,103250.88
2023-01-25T01:24:30.115Z,103256.03
2023-01-25T01:26:57.642Z,103263.34
2023-01-25T01:29:25.336Z,103260.50
2023-01-25T01:31:53.567Z,103261.38
2023-01-25T01:34:21.128Z,103259.28
2023-01-25T01:36:48.497Z,103255.53
2023-01-25T01:39:16.066Z,103257.44
2023-01-25T01:41:44.819Z,103262.41
2023-01-25T01:44:17.796Z,103267.47
2023-01-25T01:46:52.371Z,103256.88
2023-01-25T01:49:23.370Z,103257.66
2023-01-25T01:51:52.108Z,103264.81
2023-01-25T01:54:24.045Z,103262.22
2023-01-25T01:56:57.073Z,103250.75
2023-01-25T01:59:27.324Z,103258.69
2023-01-25T02:01:55.250Z,103251.06
2023-01-25T02:04:23.616Z,103247.38
2023-01-25T02:06:54.017Z,103252.81
2023-01-25T02:09:24.621Z,103244.47
2023-01-25T02:11:53.816Z,103243.50
2023-01-25T02:14:21.561Z,103238.16
2023-01-25T02:16:49.018Z,103232.81
2023-01-25T02:19:23.195Z,103239.47
2023-01-25T02:21:52.647Z,103238.28
2023-01-25T02:24:22.517Z,103239.47
2023-01-25T02:26:51.285Z,103230.66
2023-01-25T02:29:19.547Z,103227.47
2023-01-25T02:31:49.393Z,103224.22
2023-01-25T02:34:16.970Z,103219.16
2023-01-25T02:36:44.363Z,103216.28
2023-01-25T02:39:16.662Z,103211.38
2023-01-25T02:41:46.682Z,103215.72
2023-01-25T02:44:17.073Z,103208.59
2023-01-25T02:46:45.524Z,103210.88
2023-01-25T02:49:13.169Z,103204.03
2023-01-25T02:51:42.003Z,103200.22
2023-01-25T02:54:11.143Z,103198.06
2023-01-25T02:56:40.601Z,103192.50
2023-01-25T02:59:08.295Z,103185.13
2023-01-25T03:01:38.469Z,103189.91
2023-01-25T03:04:06.533Z,103183.56
2023-01-25T03:06:34.600Z,103182.59
2023-01-25T03:09:02.434Z,103176.75
2023-01-25T03:11:29.895Z,103166.44
2023-01-25T03:13:57.319Z,103160.56
2023-01-25T03:16:24.887Z,103166.56
2023-01-25T03:18:55.457Z,103164.88
2023-01-25T03:21:23.853Z,103161.09
2023-01-25T03:23:56.488Z,103162.00
2023-01-25T03:26:24.874Z,103166.22
2023-01-25T03:28:52.418Z,103161.44
2023-01-25T03:31:20.601Z,103165.91
2023-01-25T03:33:48.583Z,103167.47
2023-01-25T03:36:17.382Z,103154.91
2023-01-25T03:38:44.766Z,103153.88
2023-01-25T03:41:14.058Z,103155.50
2023-01-25T03:43:41.539Z,103147.66
2023-01-25T03:46:09.205Z,103144.78
2023-01-25T03:48:36.584Z,103139.94
2023-01-25T03:51:03.982Z,103144.22
2023-01-25T03:53:32.943Z,103134.19
2023-01-25T03:56:02.063Z,103133.91
2023-01-25T03:58:30.392Z,103130.44
2023-01-25T04:00:59.332Z,103138.03
2023-01-25T04:03:28.143Z,103140.50
2023-01-25T04:05:57.884Z,103139.22
2023-01-25T04:08:26.065Z,103138.53
2023-01-25T04:10:56.656Z,103137.66
2023-01-25T04:13:25.762Z,103131.25
2023-01-25T04:15:53.232Z,103137.41
2023-01-25T04:18:20.709Z,103125.16
2023-01-25T04:20:53.539Z,103124.91
2023-01-25T04:23:20.974Z,103119.72
2023-01-25T04:25:55.139Z,103117.38
2023-01-25T04:28:22.735Z,103120.13
2023-01-25T04:30:50.308Z,103111.31
2023-01-25T04:33:18.264Z,103107.06
2023-01-25T04:35:45.885Z,103102.69
2023-01-25T04:38:13.746Z,103110.63
2023-01-25T04:40:41.249Z,103100.78
2023-01-25T04:43:10.373Z,103093.50
2023-01-25T04:45:37.768Z,103099.41
2023-01-25T04:48:09.659Z,103099.13
2023-01-25T04:50:37.114Z,103095.03
2023-01-25T04:53:07.545Z,103093.03
2023-01-25T04:55:34.995Z,103095.72
2023-01-25T04:58:02.957Z,103092.28
2023-01-25T05:00:32.616Z,103091.91
2023-01-25T05:03:00.147Z,103086.03
2023-01-25T05:05:27.647Z,103090.16
2023-01-25T05:07:55.059Z,103081.91
2023-01-25T05:10:22.650Z,103087.19
2023-01-25T05:12:50.126Z,103079.41
2023-01-25T05:15:17.490Z,103083.88
2023-01-25T05:17:46.247Z,103073.94
2023-01-25T05:20:13.959Z,103079.72
2023-01-25T05:22:41.390Z,103061.25
2023-01-25T05:25:29.567Z,103073.19
2023-01-25T05:27:56.035Z,103063.00
2023-01-25T05:30:23.485Z,103067.44
2023-01-25T05:32:52.300Z,103061.28
2023-01-25T05:35:19.746Z,103066.41
2023-01-25T05:37:47.143Z,103060.88
2023-01-25T05:40:14.781Z,103061.25
2023-01-25T05:42:42.222Z,103056.44
2023-01-25T05:45:11.460Z,103065.75
2023-01-25T05:47:39.101Z,103052.88
2023-01-25T05:50:09.654Z,103054.44
2023-01-25T05:52:37.183Z,103050.31
2023-01-25T05:55:05.075Z,103048.50
2023-01-25T05:57:32.457Z,103049.16
2023-01-25T05:59:59.837Z,103054.94
2023-01-25T06:02:27.352Z,103054.22
2023-01-25T06:04:54.853Z,103040.16
2023-01-25T06:07:24.834Z,103037.63
2023-01-25T06:09:52.277Z,103038.97
2023-01-25T06:12:21.787Z,103032.31
2023-01-25T06:14:49.254Z,103031.94
2023-01-25T06:17:16.614Z,103039.47
2023-01-25T06:19:44.049Z,103029.09
2023-01-25T06:22:11.465Z,103033.28
2023-01-25T06:24:40.341Z,103031.31
2023-01-25T06:27:07.679Z,103025.56
2023-01-25T06:29:35.179Z,103041.47
2023-01-25T06:32:02.589Z,103040.13
2023-01-25T06:34:30.032Z,103034.13
2023-01-25T06:36:57.420Z,103040.69
2023-01-25T06:39:24.865Z,103040.13
2023-01-25T06:41:54.936Z,103040.19
2023-01-25T06:44:22.332Z,103041.88
2023-01-25T06:46:49.753Z,103043.63
2023-01-25T06:49:17.269Z,103038.97
2023-01-25T06:51:44.624Z,103042.84
2023-01-25T06:54:12.047Z,103047.19
2023-01-25T06:56:39.422Z,103043.97
2023-01-25T06:59:08.142Z,103041.94
2023-01-25T07:01:35.544Z,103048.31
2023-01-25T07:04:02.909Z,103039.28
2023-01-25T07:06:33.069Z,103038.06
2023-01-25T07:09:05.994Z,103034.19
2023-01-25T07:11:33.417Z,103033.03
2023-01-25T07:14:03.022Z,103040.63
2023-01-25T07:16:36.475Z,103032.47
2023-01-25T07:19:03.921Z,103021.94
2023-01-25T07:21:31.305Z,103023.47
2023-01-25T07:24:02.202Z,103022.50
2023-01-25T07:26:29.823Z,103021.63
2023-01-25T07:28:58.852Z,103015.63
2023-01-25T07:31:26.902Z,103014.41
2023-01-25T07:33:57.687Z,103005.53
2023-01-25T07:36:25.635Z,103007.75
2023-01-25T07:38:54.137Z,103005.84
2023-01-25T07:41:21.482Z,103011.09
2023-01-25T07:43:48.959Z,102998.56
2023-01-25T07:46:16.548Z,103008.78
2023-01-25T07:48:48.112Z,103006.91
2023-01-25T07:51:23.434Z,103008.56
2023-01-25T07:53:52.112Z,103002.69
2023-01-25T07:56:20.058Z,102997.19
2023-01-25T07:58:47.705Z,102991.03
2023-01-25T08:01:16.256Z,102990.91
2023-01-25T08:03:44.664Z,102985.50
2023-01-25T08:06:12.405Z,102989.91
2023-01-25T08:08:42.584Z,102982.47
2023-01-25T08:11:12.994Z,102984.59
2023-01-25T08:13:40.361Z,102982.84
2023-01-25T08:16:07.823Z,102973.81
2023-01-25T08:18:36.084Z,102970.75
2023-01-25T08:21:04.321Z,102949.28
2023-01-25T08:23:31.813Z,102957.25
2023-01-25T08:26:04.157Z,102956.91
2023-01-25T08:28:32.149Z,102946.84
2023-01-25T08:31:06.271Z,102944.56
2023-01-25T08:33:33.704Z,102944.44
2023-01-25T08:36:01.009Z,102937.53
2023-01-25T08:38:28.378Z,102930.66
2023-01-25T08:40:55.724Z,102938.94
2023-01-25T08:43:24.727Z,102941.88
2023-01-25T08:45:57.486Z,102924.88
2023-01-25T08:48:24.858Z,102935.59
2023-01-25T08:50:55.010Z,102937.41
2023-01-25T08:53:22.365Z,102936.28
2023-01-25T08:55:49.761Z,102934.78
2023-01-25T08:58:19.749Z,102931.00
2023-01-25T09:00:49.241Z,102925.84
2023-01-25T09:03:18.014Z,102914.47
2023-01-25T09:05:45.552Z,102920.41
2023-01-25T09:08:12.897Z,102919.19
2023-01-25T09:10:40.261Z,102909.59
2023-01-25T09:13:08.752Z,102904.09
2023-01-25T09:15:36.231Z,102905.38
2023-01-25T09:18:05.144Z,102899.53
2023-01-25T09:20:34.332Z,102904.50
2023-01-25T09:23:02.105Z,102897.31
2023-01-25T09:25:29.441Z,102891.13
2023-01-25T09:27:56.843Z,102890.63
2023-01-25T09:30:33.935Z,102883.50
2023-01-25T09:33:06.271Z,102882.81
2023-01-25T09:35:35.610Z,102876.22
2023-01-25T09:38:03.230Z,102875.44
2023-01-25T09:40:34.997Z,102884.16
2023-01-25T09:43:06.827Z,102877.78
2023-01-25T09:45:35.455Z,102881.50
2023-01-25T09:48:14.401Z,102877.66
2023-01-25T09:50:58.123Z,102870.44
2023-01-25T09:53:35.827Z,102875.75
2023-01-25T09:56:05.969Z,102864.75
2023-01-25T09:58:35.752Z,102863.94
2023-01-25T10:01:14.472Z,102857.66
2023-01-25T10:03:49.489Z,102863.66
2023-01-25T10:06:18.041Z,102858.25
2023-01-25T10:08:49.904Z,102852.84
2023-01-25T10:11:22.297Z,102859.13
2023-01-25T10:13:50.087Z,102847.03
2023-01-25T10:16:25.943Z,102851.47
2023-01-25T10:19:05.408Z,102847.16
2023-01-25T10:21:36.382Z,102846.19
2023-01-25T10:24:39.349Z,102845.44
2023-01-25T10:27:15.053Z,102845.97
2023-01-25T10:29:42.418Z,102842.00
2023-01-25T10:32:15.607Z,102841.38
2023-01-25T10:34:55.819Z,102837.22
2023-01-25T10:37:26.510Z,102837.16
2023-01-25T10:39:58.435Z,102830.47
2023-01-25T10:42:27.748Z,102826.75
2023-01-25T10:44:55.108Z,102818.09
2023-01-25T10:47:25.226Z,102814.63
2023-01-25T10:49:55.371Z,102808.53
2023-01-25T10:52:24.357Z,102804.88
2023-01-25T10:55:12.688Z,102798.78
2023-01-25T10:57:44.085Z,102794.53
2023-01-25T11:00:21.771Z,102787.22
2023-01-25T11:02:49.559Z,102787.63
2023-01-25T11:05:27.761Z,102771.63
2023-01-25T11:07:55.854Z,102756.53
2023-01-25T11:10:31.871Z,102758.06
2023-01-25T11:13:21.724Z,102768.25
2023-01-25T11:15:50.981Z,102762.72
2023-01-25T11:18:20.329Z,102762.50
2023-01-25T11:20:50.185Z,102762.19
2023-01-25T11:23:24.097Z,102759.03
2023-01-25T11:25:52.157Z,102745.72
2023-01-25T11:28:22.842Z,102743.88
2023-01-25T11:30:51.134Z,102731.72
2023-01-25T11:33:20.678Z,102734.91
2023-01-25T11:36:06.161Z,102716.81
2023-01-25T11:38:33.721Z,102706.22
2023-01-25T11:41:09.157Z,102701.59
2023-01-25T11:43:54.149Z,102700.16
2023-01-25T11:46:30.147Z,102693.34
2023-01-25T11:49:10.453Z,102692.16
2023-01-25T11:51:42.772Z,102673.81
2023-01-25T11:54:38.619Z,102666.06
2023-01-25T11:57:14.645Z,102663.03
2023-01-25T11:59:55.833Z,102661.53
2023-01-25T12:02:52.447Z,102658.53
2023-01-25T12:05:28.407Z,102650.59
2023-01-25T12:08:06.597Z,102638.66
2023-01-25T12:10:39.565Z,102626.34
2023-01-25T12:13:13.532Z,102629.81
2023-01-25T12:15:48.126Z,102634.19
2023-01-25T12:18:36.515Z,102615.91
2023-01-25T12:21:08.401Z,102614.91
2023-01-25T12:23:56.579Z,102608.94
2023-01-25T12:26:27.669Z,102604.91
2023-01-25T12:29:00.140Z,102600.41
2023-01-25T12:31:31.529Z,102588.25
2023-01-25T12:34:03.368Z,102587.56
2023-01-25T12:36:33.802Z,102575.69
2023-01-25T12:39:04.705Z,102573.75
2023-01-25T12:41:37.115Z,102565.28
2023-01-25T12:44:09.613Z,102556.75
2023-01-25T12:46:42.246Z,102554.94
2023-01-25T12:49:16.806Z,102542.97
2023-01-25T12:51:45.437Z,102527.22
2023-01-25T12:54:19.361Z,102525.91
2023-01-25T12:56:50.042Z,102520.47
2023-01-25T12:59:21.656Z,102524.81
2023-01-25T13:01:52.686Z,102516.88
2023-01-25T13:04:30.804Z,102511.88
2023-01-25T13:07:03.453Z,102505.56
2023-01-25T13:09:35.580Z,102495.66
2023-01-25T13:12:04.606Z,102495.25
2023-01-25T13:14:36.806Z,102496.25
2023-01-25T13:17:25.909Z,102490.50
2023-01-25T13:19:54.328Z,102488.88
2023-01-25T13:22:58.512Z,102489.28
2023-01-25T13:25:28.286Z,102482.03
2023-01-25T13:28:39.832Z,102495.41
2023-01-25T13:31:07.231Z,102496.50
2023-01-25T13:33:36.104Z,102493.69
2023-01-25T13:36:38.141Z,102489.09
2023-01-25T13:39:39.229Z,102484.25
2023-01-25T13:42:19.583Z,102494.00
2023-01-25T13:44:50.725Z,102488.25
2023-01-25T13:47:21.501Z,102487.28
2023-01-25T13:49:53.089Z,102482.22
2023-01-25T13:52:22.315Z,102489.34
2023-01-25T13:54:51.541Z,102470.22
2023-01-25T13:57:23.594Z,102470.13
2023-01-25T14:00:09.925Z,102468.31
2023-01-25T14:02:38.430Z,102472.63
2023-01-25T14:05:08.211Z,102478.88
2023-01-25T14:07:36.911Z,102473.88
2023-01-25T14:10:10.209Z,102474.69
2023-01-25T14:12:39.904Z,102471.94
2023-01-25T14:15:22.036Z,102467.50
2023-01-25T14:18:04.739Z,102469.56
2023-01-25T14:20:32.133Z,102466.09
2023-01-25T14:22:59.441Z,102469.16
2023-01-25T14:25:26.890Z,102465.84
2023-01-25T14:27:57.029Z,102458.97
2023-01-25T14:30:25.835Z,102452.44
2023-01-25T14:32:55.334Z,102445.88
2023-01-25T14:35:42.789Z,102440.34
2023-01-25T14:38:31.527Z,102445.44
2023-01-25T14:41:06.754Z,102452.72
2023-01-25T14:43:37.325Z,102455.78
2023-01-25T14:46:19.441Z,102455.78
2023-01-25T14:48:47.016Z,102441.69
2023-01-25T14:51:18.060Z,102437.63
2023-01-25T14:53:47.401Z,102433.84
2023-01-25T14:56:27.131Z,102430.91
2023-01-25T14:58:59.803Z,102428.09
2023-01-25T15:01:32.042Z,102415.78
2023-01-25T15:03:59.717Z,102409.91
2023-01-25T15:06:27.030Z,102408.03
2023-01-25T15:08:54.458Z,102405.69
2023-01-25T15:11:38.487Z,102401.78
2023-01-25T15:14:17.638Z,102402.91
2023-01-25T15:16:45.343Z,102402.44
2023-01-25T15:19:22.821Z,102403.28
2023-01-25T15:21:50.429Z,102401.72
2023-01-25T15:24:18.027Z,102392.38
2023-01-25T15:26:50.870Z,102390.25
2023-01-25T15:29:21.751Z,102392.09
2023-01-25T15:31:50.181Z,102399.34
2023-01-25T15:34:19.327Z,102394.72
2023-01-25T15:36:47.095Z,102387.88
2023-01-25T15:39:16.081Z,102390.66
2023-01-25T15:41:43.613Z,102385.44
2023-01-25T15:44:11.312Z,102390.66
2023-01-25T15:46:41.289Z,102390.66
2023-01-25T15:49:09.601Z,102388.66
2023-01-25T15:51:36.931Z,102376.28
2023-01-25T15:54:04.637Z,102371.31
2023-01-25T15:56:33.685Z,102366.19
2023-01-25T15:59:02.038Z,102365.31
2023-01-25T16:01:30.554Z,102360.41
2023-01-25T16:04:00.386Z,102363.75
2023-01-25T16:06:38.057Z,102359.09
2023-01-25T16:09:14.222Z,102357.50
2023-01-25T16:11:41.565Z,102349.22
2023-01-25T16:14:08.900Z,102339.03
2023-01-25T16:16:40.404Z,102339.97
2023-01-25T16:19:13.097Z,102332.41
2023-01-25T16:21:40.655Z,102330.34
2023-01-25T16:24:08.806Z,102332.13
2023-01-25T16:26:38.282Z,102334.59
2023-01-25T16:29:05.599Z,102335.06
2023-01-25T16:31:33.662Z,102328.88
2023-01-25T16:34:01.528Z,102333.03
2023-01-25T16:36:31.324Z,102336.22
2023-01-25T16:39:07.555Z,102336.53
2023-01-25T16:41:34.916Z,102330.94
2023-01-25T16:44:03.092Z,102328.13
2023-01-25T16:46:30.507Z,102319.44
2023-01-25T16:48:58.704Z,102328.09
2023-01-25T16:51:27.709Z,102329.34
2023-01-25T16:53:58.056Z,102319.03
2023-01-25T16:56:26.737Z,102311.78
2023-01-25T16:58:55.521Z,102312.91
2023-01-25T17:01:24.439Z,102316.19
2023-01-25T17:03:52.209Z,102314.38
2023-01-25T17:06:21.617Z,102314.59
2023-01-25T17:08:49.501Z,102306.13
2023-01-25T17:11:19.469Z,102306.03
2023-01-25T17:13:49.544Z,102306.75
2023-01-25T17:16:17.031Z,102311.47
2023-01-25T17:18:44.423Z,102318.59
2023-01-25T17:21:14.369Z,102306.03
2023-01-25T17:23:42.630Z,102297.19
2023-01-25T17:26:12.320Z,102287.88
2023-01-25T17:28:41.076Z,102288.28
2023-01-25T17:31:14.792Z,102300.59
2023-01-25T17:33:42.396Z,102294.97
2023-01-25T17:36:10.186Z,102291.13
2023-01-25T17:38:37.645Z,102284.03
2023-01-25T17:41:05.554Z,102290.91
2023-01-25T17:43:34.520Z,102280.41
2023-01-25T17:46:11.454Z,102268.59
2023-01-25T17:48:38.863Z,102265.22
2023-01-25T17:51:06.724Z,102272.88
2023-01-25T17:53:34.417Z,102279.41
2023-01-25T17:56:02.722Z,102269.41
2023-01-25T17:58:30.103Z,102277.59
2023-01-25T18:01:12.562Z,102264.59
2023-01-25T18:03:42.319Z,102260.59
2023-01-25T18:06:10.289Z,102260.78
2023-01-25T18:08:40.074Z,102250.94
2023-01-25T18:11:10.097Z,102249.72
2023-01-25T18:13:40.218Z,102247.13
2023-01-25T18:16:09.417Z,102245.00
2023-01-25T18:18:37.376Z,102229.94
2023-01-25T18:21:08.886Z,102236.25
2023-01-25T18:23:37.160Z,102222.75
2023-01-25T18:26:06.420Z,102221.53
2023-01-25T18:28:33.977Z,102220.28
2023-01-25T18:31:04.466Z,102221.53
2023-01-25T18:33:33.103Z,102214.97
2023-01-25T18:36:02.756Z,102216.91
2023-01-25T18:38:32.708Z,102213.53
2023-01-25T18:41:00.270Z,102216.84
2023-01-25T18:43:28.017Z,102213.91
2023-01-25T18:45:56.206Z,102211.91
2023-01-25T18:48:30.148Z,102198.03
2023-01-25T18:50:58.649Z,102186.09
2023-01-25T18:53:27.065Z,102184.41
2023-01-25T18:56:04.090Z,102188.41
2023-01-25T18:58:34.070Z,102190.84
2023-01-25T19:01:03.987Z,102191.94
2023-01-25T19:03:31.345Z,102184.88
2023-01-25T19:05:58.833Z,102182.44
2023-01-25T19:08:27.000Z,102170.41
2023-01-25T19:10:59.963Z,102175.44
2023-01-25T19:13:31.270Z,102179.38
2023-01-25T19:16:03.562Z,102183.78
2023-01-25T19:18:32.682Z,102186.28
2023-01-25T19:21:00.031Z,102178.59
2023-01-25T19:23:27.658Z,102185.25
2023-01-25T19:25:55.548Z,102180.84
2023-01-25T19:28:24.034Z,102179.03
2023-01-25T19:30:52.896Z,102177.78
2023-01-25T19:33:20.279Z,102181.81
2023-01-25T19:35:47.625Z,102175.72
2023-01-25T19:38:15.029Z,102168.03
2023-01-25T19:40:42.348Z,102157.72
2023-01-25T19:43:09.672Z,102161.56
2023-01-25T19:45:36.984Z,102162.97
2023-01-25T19:48:08.090Z,102151.44
2023-01-25T19:50:35.392Z,102149.06
2023-01-25T19:53:03.438Z,102145.59
2023-01-25T19:55:32.269Z,102144.09
2023-01-25T19:57:59.602Z,102147.47
2023-01-25T20:00:27.368Z,102146.72
2023-01-25T20:02:59.354Z,102144.59
2023-01-25T20:05:32.963Z,102143.28
2023-01-25T20:08:00.299Z,102140.06
2023-01-25T20:10:27.596Z,102147.66
2023-01-25T20:12:54.905Z,102143.34
2023-01-25T20:15:22.205Z,102144.66
2023-01-25T20:17:49.504Z,102144.00
2023-01-25T20:20:17.356Z,102133.13
2023-01-25T20:22:49.080Z,102130.38
2023-01-25T20:25:16.413Z,102121.81
2023-01-25T20:27:43.721Z,102121.19
2023-01-25T20:30:12.105Z,102122.84
2023-01-25T20:32:39.437Z,102127.84
2023-01-25T20:35:08.787Z,102129.75
2023-01-25T20:37:36.285Z,102118.31
2023-01-25T20:40:05.586Z,102121.50
2023-01-25T20:42:32.997Z,102119.13
2023-01-25T20:45:00.308Z,102111.41
2023-01-25T20:47:27.694Z,102107.34
2023-01-25T20:49:55.087Z,102110.84
2023-01-25T20:52:22.413Z,102099.81
2023-01-25T20:54:49.827Z,102092.53
2023-01-25T20:57:18.526Z,102088.59
2023-01-25T20:59:45.867Z,102091.41
2023-01-25T21:02:13.287Z,102090.94
2023-01-25T21:04:40.639Z,102098.97
2023-01-25T21:07:08.046Z,102095.16
2023-01-25T21:09:35.358Z,102094.91
2023-01-25T21:12:04.456Z,102085.97
2023-01-25T21:14:33.170Z,102083.53
2023-01-25T21:17:00.650Z,102082.41
2023-01-25T21:19:28.009Z,102086.22
2023-01-25T21:21:55.399Z,102079.28
2023-01-25T21:24:22.861Z,102073.75
2023-01-25T21:26:50.219Z,102076.34
2023-01-25T21:29:18.497Z,102082.91
2023-01-25T21:31:49.069Z,102081.19
2023-01-25T21:34:16.488Z,102085.59
2023-01-25T21:36:43.828Z,102077.25
2023-01-25T21:39:11.194Z,102073.13
2023-01-25T21:41:38.554Z,102066.41
2023-01-25T21:44:23.578Z,102075.03
2023-01-25T21:47:16.356Z,102077.41
2023-01-25T21:49:57.336Z,102076.69
2023-01-25T21:52:24.836Z,102076.34
2023-01-25T21:54:52.320Z,102069.69
2023-01-25T21:57:20.496Z,102075.91
2023-01-25T21:59:48.753Z,102071.41
2023-01-25T22:02:17.762Z,102076.50
2023-01-25T22:04:45.216Z,102074.78
2023-01-25T22:07:12.654Z,102074.09
2023-01-25T22:09:40.109Z,102072.06
2023-01-25T22:12:07.616Z,102067.41
2023-01-25T22:14:35.191Z,102068.03
2023-01-25T22:17:03.089Z,102064.97
2023-01-25T22:19:31.847Z,102060.75
2023-01-25T22:21:59.222Z,102056.50
2023-01-25T22:24:26.663Z,102061.44
2023-01-25T22:26:59.504Z,102049.69
2023-01-25T22:29:27.214Z,102058.91
2023-01-25T22:31:54.661Z,102053.31
2023-01-25T22:34:22.170Z,102048.63
2023-01-25T22:36:50.938Z,102055.94
2023-01-25T22:39:18.402Z,102049.69
2023-01-25T22:41:45.802Z,102037.53
2023-01-25T22:44:14.455Z,102031.75
2023-01-25T22:46:42.008Z,102033.88
2023-01-25T22:49:09.378Z,102033.81
2023-01-25T22:51:36.742Z,102036.38
2023-01-25T22:54:06.043Z,102025.28
2023-01-25T22:56:34.590Z,102034.41
2023-01-25T22:59:02.462Z,102031.94
2023-01-25T23:01:31.856Z,102023.69
2023-01-25T23:03:59.860Z,102016.84
2023-01-25T23:06:28.520Z,102011.25
2023-01-25T23:08:56.867Z,102006.28
2023-01-25T23:11:31.932Z,102016.47
2023-01-25T23:14:17.848Z,102009.94
2023-01-25T23:16:45.282Z,102009.72
2023-01-25T23:19:11.873Z,102007.34
2023-01-25T23:21:39.368Z,101993.81
2023-01-25T23:24:07.546Z,101990.19
2023-01-25T23:26:38.969Z,101992.25
2023-01-25T23:29:08.459Z,101983.84
2023-01-25T23:31:36.336Z,101981.38
2023-01-25T23:34:05.846Z,101967.94
2023-01-25T23:36:35.078Z,101966.63
2023-01-25T23:39:03.205Z,101965.81
2023-01-25T23:41:31.393Z,101955.38
2023-01-25T23:44:00.751Z,101965.09
2023-01-25T23:46:28.607Z,101946.44
2023-01-25T23:48:56.166Z,101949.53
2023-01-25T23:51:23.787Z,101940.25
2023-01-25T23:53:53.294Z,101938.50
2023-01-25T23:56:22.479Z,101948.94
2023-01-25T23:58:51.058Z,101938.13
